Time;durP1;ratioP1;P1;durP2;ratioP2;P2;SDS_P1;SDS_P2;PMS_P1;PMS_P2;Temp;Humidity;BMP_temperature;BMP_pressure;BME280_temperature;BME280_humidity;BME280_pressure;Samples;Min_cycle;Max_cycle;Signal;HPM_P1;HPM_P2
2024/01/11 00:00:35;;;;;;;68.97;24.27;;;;;;;;;;6091156;23;20219;-90
2024/01/11 00:03:41;;;;;;;68.33;24.07;;;;;;;;;;6090954;23;20201;-90
2024/01/11 00:06:54;;;;;;;65.63;24.33;;;;;;;;;;6090840;23;20166;-90
2024/01/11 00:10:00;;;;;;;65.83;24.57;;;;;;;;;;6089184;23;20178;-91
2024/01/11 00:16:26;;;;;;;59.10;22.67;;;;;;;;;;6089596;23;20191;-93
2024/01/11 00:19:32;;;;;;;61.13;22.53;;;;;;;;;;6090414;23;20198;-90
2024/01/11 00:22:40;;;;;;;58.23;22.80;;;;;;;;;;6089853;23;20193;-91
2024/01/11 00:25:46;;;;;;;63.20;23.10;;;;;;;;;;6090404;23;20172;-91
2024/01/11 00:28:56;;;;;;;61.17;22.90;;;;;;;;;;6091169;23;20188;-90
2024/01/11 00:32:04;;;;;;;64.73;24.13;;;;;;;;;;6090930;23;20174;-93
2024/01/11 00:35:10;;;;;;;63.97;23.70;;;;;;;;;;6072442;23;20172;-91
2024/01/11 00:38:18;;;;;;;66.33;23.97;;;;;;;;;;6089256;23;20157;-89
2024/01/11 00:41:25;;;;;;;72.67;26.23;;;;;;;;;;6089402;23;20179;-92
2024/01/11 00:44:31;;;;;;;63.63;24.30;;;;;;;;;;6080549;23;20218;-91
2024/01/11 00:47:38;;;;;;;72.47;24.17;;;;;;;;;;6090325;23;20226;-90
2024/01/11 00:50:48;;;;;;;62.37;23.83;;;;;;;;;;6088580;23;20199;-90
2024/01/11 00:53:55;;;;;;;61.17;22.47;;;;;;;;;;6087855;23;20159;-93
2024/01/11 00:57:01;;;;;;;65.30;22.97;;;;;;;;;;6090227;23;20154;-93
2024/01/11 01:00:13;;;;;;;67.13;23.80;;;;;;;;;;6089387;23;20158;-92
2024/01/11 01:03:19;;;;;;;58.33;23.27;;;;;;;;;;6086906;23;20195;-92
2024/01/11 01:06:27;;;;;;;60.67;23.43;;;;;;;;;;6086283;23;20154;-91
2024/01/11 01:09:35;;;;;;;67.37;24.30;;;;;;;;;;6086968;23;20179;-91
2024/01/11 01:12:42;;;;;;;58.33;21.60;;;;;;;;;;6088204;23;20170;-89
2024/01/11 01:15:48;;;;;;;66.37;23.67;;;;;;;;;;6088369;23;20175;-90
2024/01/11 01:18:54;;;;;;;69.97;23.67;;;;;;;;;;6088695;23;20178;-91
2024/01/11 01:22:01;;;;;;;69.80;25.13;;;;;;;;;;6087938;23;20221;-90
2024/01/11 01:25:13;;;;;;;69.13;24.00;;;;;;;;;;6089604;23;20158;-91
2024/01/11 01:28:26;;;;;;;67.70;24.07;;;;;;;;;;6088479;23;20218;-90
2024/01/11 01:31:37;;;;;;;62.80;23.80;;;;;;;;;;6089297;23;20227;-91
2024/01/11 01:34:42;;;;;;;63.30;23.37;;;;;;;;;;6076946;23;20270;-89
2024/01/11 01:37:48;;;;;;;68.30;24.67;;;;;;;;;;6088907;23;20159;-90
2024/01/11 01:40:55;;;;;;;58.27;22.17;;;;;;;;;;6089367;23;20146;-91
2024/01/11 01:44:02;;;;;;;62.73;22.60;;;;;;;;;;6088975;23;20206;-90
2024/01/11 01:47:11;;;;;;;67.13;23.37;;;;;;;;;;6090096;23;20170;-89
2024/01/11 01:50:20;;;;;;;70.70;23.40;;;;;;;;;;6088912;23;20166;-91
2024/01/11 01:53:28;;;;;;;66.80;23.47;;;;;;;;;;6089184;23;20178;-92
2024/01/11 01:56:44;;;;;;;62.97;23.63;;;;;;;;;;6089508;23;20158;-91
2024/01/11 01:59:53;;;;;;;65.80;24.67;;;;;;;;;;6088306;23;20175;-91
2024/01/11 02:03:01;;;;;;;67.10;24.20;;;;;;;;;;6088781;23;20691;-90
2024/01/11 02:06:07;;;;;;;64.37;23.77;;;;;;;;;;6087524;23;20200;-90
2024/01/11 02:09:13;;;;;;;65.77;23.10;;;;;;;;;;6088548;23;20155;-90
2024/01/11 02:12:22;;;;;;;69.37;23.63;;;;;;;;;;6088762;23;20170;-92
2024/01/11 02:15:29;;;;;;;76.10;25.73;;;;;;;;;;6089642;23;20251;-92
2024/01/11 02:18:34;;;;;;;65.20;23.70;;;;;;;;;;6088341;23;20166;-88
2024/01/11 02:21:40;;;;;;;68.50;24.23;;;;;;;;;;6091006;23;20158;-88
2024/01/11 02:24:48;;;;;;;65.63;23.07;;;;;;;;;;6088686;23;20174;-91
2024/01/11 02:27:53;;;;;;;69.77;23.20;;;;;;;;;;6088368;23;20154;-91
2024/01/11 02:30:59;;;;;;;55.27;21.63;;;;;;;;;;6088244;23;20171;-91
2024/01/11 02:34:04;;;;;;;62.67;23.73;;;;;;;;;;6088187;23;20181;-92
2024/01/11 02:37:10;;;;;;;60.77;23.63;;;;;;;;;;6088539;23;20204;-91
2024/01/11 02:40:17;;;;;;;59.77;23.23;;;;;;;;;;6088210;23;20203;-88
2024/01/11 02:43:23;;;;;;;64.30;23.63;;;;;;;;;;6086362;23;20219;-91
2024/01/11 02:46:28;;;;;;;65.30;24.00;;;;;;;;;;6084532;23;20170;-92
2024/01/11 02:49:34;;;;;;;65.43;23.10;;;;;;;;;;6085032;23;20179;-92
2024/01/11 02:52:39;;;;;;;71.70;23.13;;;;;;;;;;6086167;23;20215;-92
2024/01/11 02:55:47;;;;;;;62.33;22.83;;;;;;;;;;6086295;23;20170;-91
2024/01/11 02:58:53;;;;;;;68.37;22.90;;;;;;;;;;6087570;23;20242;-90
2024/01/11 03:01:59;;;;;;;66.53;24.03;;;;;;;;;;6086911;23;20553;-93
2024/01/11 03:05:09;;;;;;;66.90;23.17;;;;;;;;;;6081509;23;20231;-90
2024/01/11 03:08:15;;;;;;;74.43;24.03;;;;;;;;;;6088309;23;20186;-89
2024/01/11 03:11:24;;;;;;;63.50;24.17;;;;;;;;;;6071904;23;20170;-90
2024/01/11 03:14:29;;;;;;;69.67;24.13;;;;;;;;;;6088140;23;20219;-91
2024/01/11 03:17:35;;;;;;;59.53;22.87;;;;;;;;;;6089471;23;20166;-92
2024/01/11 03:20:43;;;;;;;63.73;23.07;;;;;;;;;;6089718;23;20171;-91
2024/01/11 03:23:50;;;;;;;62.60;23.40;;;;;;;;;;6090141;23;20286;-92
2024/01/11 03:26:57;;;;;;;66.67;23.03;;;;;;;;;;6090562;23;20215;-91
2024/01/11 03:30:04;;;;;;;65.33;23.07;;;;;;;;;;6090398;23;20175;-91
2024/01/11 03:33:09;;;;;;;65.87;23.33;;;;;;;;;;6090314;23;20199;-92
2024/01/11 03:36:14;;;;;;;60.57;23.13;;;;;;;;;;6090450;23;20150;-92
2024/01/11 03:39:20;;;;;;;63.50;23.17;;;;;;;;;;6089264;23;20170;-91
2024/01/11 03:42:26;;;;;;;65.97;24.77;;;;;;;;;;6088765;23;20196;-92
2024/01/11 03:45:32;;;;;;;61.87;23.57;;;;;;;;;;6090787;23;20168;-91
2024/01/11 03:48:38;;;;;;;61.90;24.00;;;;;;;;;;6087480;23;20167;-91
2024/01/11 03:51:44;;;;;;;66.00;23.73;;;;;;;;;;6082744;23;20272;-91
2024/01/11 03:54:50;;;;;;;61.67;24.70;;;;;;;;;;6089552;23;20219;-90
2024/01/11 03:57:58;;;;;;;58.87;22.67;;;;;;;;;;6090348;23;20167;-90
2024/01/11 04:04:24;;;;;;;70.77;24.27;;;;;;;;;;6088359;23;20182;-90
2024/01/11 04:07:30;;;;;;;69.13;23.33;;;;;;;;;;6087409;23;20167;-92
2024/01/11 04:10:35;;;;;;;65.10;23.97;;;;;;;;;;6088806;23;20180;-91
2024/01/11 04:13:43;;;;;;;58.57;22.90;;;;;;;;;;6087727;23;20165;-89
2024/01/11 04:16:49;;;;;;;63.90;23.53;;;;;;;;;;6087677;23;20166;-90
2024/01/11 04:19:56;;;;;;;57.73;22.57;;;;;;;;;;6088393;23;20216;-91
2024/01/11 04:23:01;;;;;;;71.40;23.67;;;;;;;;;;6090212;23;20224;-92
2024/01/11 04:26:06;;;;;;;65.23;23.53;;;;;;;;;;6088514;23;20215;-90
2024/01/11 04:29:13;;;;;;;64.30;23.67;;;;;;;;;;6087579;23;20162;-89
2024/01/11 04:32:18;;;;;;;68.27;22.83;;;;;;;;;;6088314;23;20163;-92
2024/01/11 04:41:11;;;;;;;65.90;24.47;;;;;;;;;;6117057;23;20226;-92
2024/01/11 04:44:17;;;;;;;66.50;22.50;;;;;;;;;;6117153;23;20197;-91
2024/01/11 04:47:25;;;;;;;62.73;23.33;;;;;;;;;;6115692;23;20186;-90
2024/01/11 04:50:30;;;;;;;57.10;22.00;;;;;;;;;;6114810;23;20154;-89
2024/01/11 04:53:38;;;;;;;67.40;24.73;;;;;;;;;;6115574;23;20154;-87
2024/01/11 04:56:43;;;;;;;63.33;23.83;;;;;;;;;;6115476;23;20161;-93
2024/01/11 04:59:50;;;;;;;66.37;23.47;;;;;;;;;;6115646;23;20157;-92
2024/01/11 05:02:56;;;;;;;64.30;23.70;;;;;;;;;;6116474;23;20150;-92
2024/01/11 05:06:02;;;;;;;69.70;24.27;;;;;;;;;;6116070;23;20214;-91
2024/01/11 05:09:08;;;;;;;77.50;24.63;;;;;;;;;;6116735;23;20165;-91
2024/01/11 05:12:13;;;;;;;64.20;23.23;;;;;;;;;;6118328;23;20186;-92
2024/01/11 05:15:20;;;;;;;69.83;24.60;;;;;;;;;;6115838;23;20198;-90
2024/01/11 05:18:25;;;;;;;68.00;24.77;;;;;;;;;;6115846;23;20170;-91
2024/01/11 05:21:31;;;;;;;68.37;23.13;;;;;;;;;;6114575;23;20245;-90
2024/01/11 05:24:36;;;;;;;69.23;25.37;;;;;;;;;;6115217;23;20206;-89
2024/01/11 05:27:43;;;;;;;74.77;24.30;;;;;;;;;;6116368;23;20170;-92
2024/01/11 05:31:00;;;;;;;73.03;24.17;;;;;;;;;;6116338;23;20169;-92
2024/01/11 05:34:06;;;;;;;64.17;22.17;;;;;;;;;;6116343;23;20170;-90
2024/01/11 05:37:12;;;;;;;66.83;23.73;;;;;;;;;;6115427;23;20161;-91
2024/01/11 05:40:17;;;;;;;59.23;22.43;;;;;;;;;;6115799;23;20250;-90
2024/01/11 05:43:23;;;;;;;66.07;22.80;;;;;;;;;;6114498;23;20557;-92
2024/01/11 05:46:36;;;;;;;75.27;23.27;;;;;;;;;;6117076;23;20617;-90
2024/01/11 05:49:42;;;;;;;68.00;24.77;;;;;;;;;;6115349;23;20234;-91
2024/01/11 05:52:47;;;;;;;61.10;22.90;;;;;;;;;;6115714;23;20178;-88
2024/01/11 05:55:53;;;;;;;64.73;24.43;;;;;;;;;;6117126;23;20195;-92
2024/01/11 05:58:58;;;;;;;67.87;24.03;;;;;;;;;;6115922;23;20215;-91
2024/01/11 08:46:30;;;;;;;66.93;24.10;;;;;;;;;;6088425;23;20214;-91
2024/01/11 09:07:42;;;;;;;70.20;26.43;;;;;;;;;;6060260;23;20218;-92
2024/01/11 09:10:51;;;;;;;65.83;25.37;;;;;;;;;;6089133;23;20199;-91
2024/01/11 09:13:57;;;;;;;69.80;25.80;;;;;;;;;;6089378;23;20239;-90
2024/01/11 09:17:06;;;;;;;74.63;26.47;;;;;;;;;;6087918;23;20239;-90
2024/01/11 09:20:14;;;;;;;81.20;24.87;;;;;;;;;;6088787;23;20179;-90
2024/01/11 09:23:21;;;;;;;69.67;25.00;;;;;;;;;;6089756;23;20275;-90
2024/01/11 09:26:27;;;;;;;76.00;26.93;;;;;;;;;;6089460;23;20179;-89
2024/01/11 09:29:35;;;;;;;78.53;25.63;;;;;;;;;;6090742;23;20162;-90
2024/01/11 09:32:45;;;;;;;76.33;26.50;;;;;;;;;;6091165;23;20184;-90
2024/01/11 09:35:54;;;;;;;66.57;25.20;;;;;;;;;;6090929;23;20653;-92
2024/01/11 09:38:59;;;;;;;69.13;26.03;;;;;;;;;;6090386;23;20740;-90
2024/01/11 09:42:09;;;;;;;78.93;26.67;;;;;;;;;;6091747;23;20207;-89
2024/01/11 09:45:18;;;;;;;94.03;33.30;;;;;;;;;;6091532;23;20243;-91
2024/01/11 09:48:24;;;;;;;69.70;25.30;;;;;;;;;;6090775;23;20246;-91
2024/01/11 09:51:32;;;;;;;71.97;27.87;;;;;;;;;;6091199;23;20171;-92
2024/01/11 09:54:40;;;;;;;82.10;29.10;;;;;;;;;;6091613;23;20162;-92
2024/01/11 09:57:47;;;;;;;73.47;24.77;;;;;;;;;;6090303;23;20166;-91
2024/01/11 10:47:53;;;;;;;75.17;25.43;;;;;;;;;;6054047;23;20194;-91
2024/01/11 10:51:02;;;;;;;80.33;29.67;;;;;;;;;;6091282;23;20163;-92
2024/01/11 10:54:09;;;;;;;81.37;28.07;;;;;;;;;;6091406;23;20176;-91
2024/01/11 12:13:34;;;;;;;77.90;30.10;;;;;;;;;;6065958;23;20230;-90
2024/01/11 12:16:41;;;;;;;87.43;30.63;;;;;;;;;;6091040;23;20215;-88
2024/01/11 12:19:47;;;;;;;73.50;29.43;;;;;;;;;;6090607;23;20233;-92
2024/01/11 12:22:52;;;;;;;88.53;31.17;;;;;;;;;;6087439;23;20208;-90
2024/01/11 12:25:59;;;;;;;87.00;32.07;;;;;;;;;;6087069;23;20189;-90
2024/01/11 12:29:09;;;;;;;91.60;32.43;;;;;;;;;;6088759;23;20518;-90
2024/01/11 12:32:16;;;;;;;86.50;32.43;;;;;;;;;;6087724;23;20194;-91
2024/01/11 12:35:21;;;;;;;82.80;31.60;;;;;;;;;;6089745;23;20174;-92
2024/01/11 12:41:48;;;;;;;88.10;32.87;;;;;;;;;;6086522;23;20187;-90
2024/01/11 12:45:01;;;;;;;80.60;32.80;;;;;;;;;;6088916;23;20247;-88
2024/01/11 12:48:09;;;;;;;83.23;31.47;;;;;;;;;;6088565;23;20192;-89
2024/01/11 12:51:14;;;;;;;93.03;33.27;;;;;;;;;;6089734;23;20157;-91
2024/01/11 12:54:21;;;;;;;93.33;32.67;;;;;;;;;;6087784;23;20158;-90
2024/01/11 12:57:26;;;;;;;88.33;32.43;;;;;;;;;;6087757;23;20150;-92
2024/01/11 13:00:38;;;;;;;84.07;29.83;;;;;;;;;;6089563;23;20191;-90
2024/01/11 13:03:47;;;;;;;81.20;30.80;;;;;;;;;;6090153;23;20170;-92
2024/01/11 13:33:46;;;;;;;84.60;31.77;;;;;;;;;;6041040;23;20194;-92
2024/01/11 13:36:52;;;;;;;94.70;32.67;;;;;;;;;;6030477;23;20159;-90
2024/01/11 13:39:57;;;;;;;88.60;31.53;;;;;;;;;;6029329;23;20175;-90
2024/01/11 13:43:03;;;;;;;86.33;31.30;;;;;;;;;;6030982;23;20177;-92
2024/01/11 13:46:16;;;;;;;81.97;30.70;;;;;;;;;;6030200;23;20251;-90
2024/01/11 13:49:37;;;;;;;81.90;30.27;;;;;;;;;;6031630;23;20175;-89
2024/01/11 13:52:46;;;;;;;89.37;32.87;;;;;;;;;;6029672;23;20237;-91
2024/01/11 13:55:54;;;;;;;85.50;32.90;;;;;;;;;;6032199;23;20148;-91
2024/01/11 13:59:00;;;;;;;92.07;33.33;;;;;;;;;;6031298;23;20232;-90
2024/01/11 14:02:08;;;;;;;83.27;32.90;;;;;;;;;;6031539;23;20179;-92
2024/01/11 14:05:17;;;;;;;81.97;31.83;;;;;;;;;;6032439;23;20192;-90
2024/01/11 14:08:25;;;;;;;92.87;33.70;;;;;;;;;;6032210;23;20205;-90
2024/01/11 17:13:24;;;;;;;116.50;38.00;;;;;;;;;;6087292;23;20218;-92
2024/01/11 17:16:29;;;;;;;114.67;37.63;;;;;;;;;;6087545;23;20155;-91
2024/01/11 17:19:34;;;;;;;107.50;36.77;;;;;;;;;;6086395;23;20507;-92
2024/01/11 17:22:42;;;;;;;117.53;38.37;;;;;;;;;;6085465;23;20178;-91
2024/01/11 17:25:47;;;;;;;129.90;41.20;;;;;;;;;;6085908;23;20207;-91
2024/01/11 17:28:57;;;;;;;124.73;40.63;;;;;;;;;;6087122;23;20223;-91
2024/01/11 17:32:14;;;;;;;124.57;40.17;;;;;;;;;;6087686;23;20170;-90
2024/01/11 17:35:20;;;;;;;135.93;42.47;;;;;;;;;;6071844;23;20170;-92
2024/01/11 17:38:25;;;;;;;114.30;37.30;;;;;;;;;;6089857;23;20162;-91
2024/01/11 17:41:31;;;;;;;117.23;37.53;;;;;;;;;;6089417;23;20178;-91
2024/01/11 17:44:46;;;;;;;124.53;38.33;;;;;;;;;;6086436;23;20174;-91
2024/01/11 17:51:13;;;;;;;113.93;38.23;;;;;;;;;;6089328;23;20262;-90
2024/01/11 17:54:19;;;;;;;127.83;38.80;;;;;;;;;;6089043;23;20505;-93
2024/01/11 17:57:30;;;;;;;123.90;38.83;;;;;;;;;;6089337;23;20178;-92
2024/01/11 18:00:37;;;;;;;134.30;39.53;;;;;;;;;;6088345;23;20159;-91
2024/01/11 18:03:42;;;;;;;127.67;39.43;;;;;;;;;;6088012;23;20169;-90
2024/01/11 18:06:57;;;;;;;127.50;39.00;;;;;;;;;;6089516;23;20186;-91
2024/01/11 18:10:03;;;;;;;140.30;40.87;;;;;;;;;;6073355;23;20174;-90
2024/01/11 18:13:09;;;;;;;127.80;39.57;;;;;;;;;;6088262;23;20195;-93
2024/01/11 19:04:41;;;;;;;143.83;40.03;;;;;;;;;;6088643;23;20181;-93
2024/01/11 19:07:46;;;;;;;139.37;40.40;;;;;;;;;;6101253;23;20299;-90
2024/01/11 19:10:53;;;;;;;162.40;44.40;;;;;;;;;;6095069;23;20175;-91
2024/01/11 21:29:43;;;;;;;116.00;32.57;;;;;;;;;;6036528;23;20215;-92
2024/01/11 21:32:49;;;;;;;107.57;30.57;;;;;;;;;;6088418;23;20599;-92
2024/01/11 21:35:55;;;;;;;114.27;29.47;;;;;;;;;;6086195;23;20171;-93
2024/01/11 21:39:02;;;;;;;109.87;30.30;;;;;;;;;;6087059;23;20159;-89
2024/01/11 21:42:07;;;;;;;116.10;31.57;;;;;;;;;;6086590;23;20254;-93
2024/01/11 21:45:15;;;;;;;101.33;28.60;;;;;;;;;;6087157;23;20194;-92
2024/01/11 21:48:21;;;;;;;112.63;30.57;;;;;;;;;;6088173;23;20150;-92
2024/01/11 21:51:27;;;;;;;130.07;36.70;;;;;;;;;;6086677;23;20223;-91
2024/01/11 21:54:35;;;;;;;124.37;35.30;;;;;;;;;;6088631;23;20179;-93
2024/01/11 21:57:40;;;;;;;115.47;35.13;;;;;;;;;;6088104;23;20233;-92
2024/01/11 22:01:07;;;;;;;138.87;35.77;;;;;;;;;;6088117;23;20180;-91
2024/01/11 22:04:14;;;;;;;107.37;29.17;;;;;;;;;;6090380;23;20187;-95
2024/01/11 22:07:21;;;;;;;107.37;31.40;;;;;;;;;;6087275;23;20175;-91
2024/01/11 22:10:28;;;;;;;126.57;37.23;;;;;;;;;;6087490;23;20170;-91
2024/01/11 22:13:33;;;;;;;113.07;33.33;;;;;;;;;;6087845;23;20158;-92
2024/01/11 22:16:39;;;;;;;129.80;37.27;;;;;;;;;;6089416;23;20195;-92
2024/01/11 22:19:47;;;;;;;120.33;35.03;;;;;;;;;;6090172;23;20174;-93
2024/01/11 22:22:54;;;;;;;130.37;34.50;;;;;;;;;;6090038;23;20171;-93
2024/01/11 22:26:00;;;;;;;130.17;36.67;;;;;;;;;;6087396;23;20193;-91
2024/01/11 22:29:07;;;;;;;134.97;38.47;;;;;;;;;;6088323;23;20154;-91
2024/01/11 22:35:55;;;;;;;122.90;36.27;;;;;;;;;;6087774;23;20174;-94
2024/01/11 22:39:04;;;;;;;128.57;37.63;;;;;;;;;;6087536;23;20170;-92
2024/01/11 22:42:14;;;;;;;126.30;34.73;;;;;;;;;;6087940;23;20200;-92
2024/01/11 22:45:22;;;;;;;125.03;35.07;;;;;;;;;;6087771;23;20222;-92
2024/01/11 22:48:31;;;;;;;119.97;34.37;;;;;;;;;;6087922;23;20218;-90
2024/01/11 22:51:41;;;;;;;125.43;36.33;;;;;;;;;;6088805;23;20171;-92
2024/01/11 22:54:50;;;;;;;115.03;35.30;;;;;;;;;;6088160;23;20209;-90
2024/01/11 22:58:00;;;;;;;123.87;36.73;;;;;;;;;;6089274;23;20176;-91
2024/01/11 23:01:08;;;;;;;112.90;32.60;;;;;;;;;;6089356;23;20155;-92
2024/01/11 23:04:14;;;;;;;108.10;29.87;;;;;;;;;;6088915;23;20167;-93
2024/01/11 23:07:22;;;;;;;117.53;34.83;;;;;;;;;;6088095;23;20202;-91
2024/01/11 23:10:35;;;;;;;119.03;34.50;;;;;;;;;;6088426;23;20179;-91
2024/01/11 23:13:41;;;;;;;110.53;29.40;;;;;;;;;;6086946;23;20216;-92
2024/01/11 23:16:46;;;;;;;114.23;31.93;;;;;;;;;;6086433;23;20175;-93
2024/01/11 23:19:53;;;;;;;106.93;30.20;;;;;;;;;;6086534;23;20615;-92
2024/01/11 23:23:01;;;;;;;100.53;29.83;;;;;;;;;;6087459;23;20222;-92
2024/01/11 23:26:07;;;;;;;123.50;35.13;;;;;;;;;;6089444;23;20243;-91
2024/01/11 23:29:12;;;;;;;111.10;31.67;;;;;;;;;;6088751;23;20273;-91
2024/01/11 23:32:19;;;;;;;117.67;32.87;;;;;;;;;;6089036;23;20211;-89
2024/01/11 23:35:27;;;;;;;102.23;28.43;;;;;;;;;;6090841;23;20166;-92
2024/01/11 23:38:36;;;;;;;114.73;33.23;;;;;;;;;;6091895;23;20170;-92
2024/01/11 23:41:43;;;;;;;102.63;31.47;;;;;;;;;;6092705;23;20174;-92
2024/01/11 23:44:49;;;;;;;111.10;35.20;;;;;;;;;;6089500;23;20171;-92
2024/01/11 23:47:57;;;;;;;117.33;32.87;;;;;;;;;;6092593;23;20219;-92
2024/01/11 23:51:03;;;;;;;111.00;33.27;;;;;;;;;;6088453;23;20170;-91
2024/01/11 23:54:11;;;;;;;116.53;34.53;;;;;;;;;;6089036;23;20234;-92
2024/01/11 23:57:16;;;;;;;97.53;29.20;;;;;;;;;;6089530;23;20218;-94
